sensor_id;sensor_type;location;lat;lon;timestamp;temperature;humidity
35796;DHT22;21916;52.428;13.302;2023-04-09T00:00:11;4.80;99.90
35796;DHT22;21916;52.428;13.302;2023-04-09T00:02:40;4.80;99.90
35796;DHT22;21916;52.428;13.302;2023-04-09T00:05:06;4.70;99.90
35796;DHT22;21916;52.428;13.302;2023-04-09T00:07:32;4.60;99.90
35796;DHT22;21916;52.428;13.302;2023-04-09T00:09:58;4.60;99.90
35796;DHT22;21916;52.428;13.302;2023-04-09T00:12:24;4.70;99.90
35796;DHT22;21916;52.428;13.302;2023-04-09T00:14:51;4.80;99.90
35796;DHT22;21916;52.428;13.302;2023-04-09T00:17:16;4.80;99.90
35796;DHT22;21916;52.428;13.302;2023-04-09T00:19:42;4.60;99.90
35796;DHT22;21916;52.428;13.302;2023-04-09T00:22:08;4.70;99.90
35796;DHT22;21916;52.428;13.302;2023-04-09T00:24:35;4.60;99.90
35796;DHT22;21916;52.428;13.302;2023-04-09T00:27:01;4.60;99.90
35796;DHT22;21916;52.428;13.302;2023-04-09T00:29:27;4.50;99.90
35796;DHT22;21916;52.428;13.302;2023-04-09T00:31:53;4.40;99.90
35796;DHT22;21916;52.428;13.302;2023-04-09T00:34:19;4.40;99.90
35796;DHT22;21916;52.428;13.302;2023-04-09T00:36:45;4.50;99.90
35796;DHT22;21916;52.428;13.302;2023-04-09T00:39:11;4.60;99.90
35796;DHT22;21916;52.428;13.302;2023-04-09T00:41:37;4.60;99.90
35796;DHT22;21916;52.428;13.302;2023-04-09T00:44:03;4.40;99.90
35796;DHT22;21916;52.428;13.302;2023-04-09T00:46:30;4.40;99.90
35796;DHT22;21916;52.428;13.302;2023-04-09T00:48:57;4.50;99.90
35796;DHT22;21916;52.428;13.302;2023-04-09T00:51:23;4.50;99.90
35796;DHT22;21916;52.428;13.302;2023-04-09T00:53:49;4.40;99.90
35796;DHT22;21916;52.428;13.302;2023-04-09T00:56:16;4.20;99.90
35796;DHT22;21916;52.428;13.302;2023-04-09T00:58:43;4.20;99.90
35796;DHT22;21916;52.428;13.302;2023-04-09T01:01:11;4.00;99.90
35796;DHT22;21916;52.428;13.302;2023-04-09T01:03:37;3.90;99.90
35796;DHT22;21916;52.428;13.302;2023-04-09T01:06:35;3.90;99.90
35796;DHT22;21916;52.428;13.302;2023-04-09T01:14:25;4.00;99.90
35796;DHT22;21916;52.428;13.302;2023-04-09T01:17:05;4.10;99.90
35796;DHT22;21916;52.428;13.302;2023-04-09T01:19:53;4.10;99.90
35796;DHT22;21916;52.428;13.302;2023-04-09T01:30:48;3.90;99.90
35796;DHT22;21916;52.428;13.302;2023-04-09T01:33:16;3.90;99.90
35796;DHT22;21916;52.428;13.302;2023-04-09T01:35:44;3.80;99.90
35796;DHT22;21916;52.428;13.302;2023-04-09T01:38:13;3.80;99.90
35796;DHT22;21916;52.428;13.302;2023-04-09T01:40:39;3.60;99.90
35796;DHT22;21916;52.428;13.302;2023-04-09T01:43:07;3.40;99.90
35796;DHT22;21916;52.428;13.302;2023-04-09T01:45:33;3.30;99.90
35796;DHT22;21916;52.428;13.302;2023-04-09T01:48:00;3.40;99.90
35796;DHT22;21916;52.428;13.302;2023-04-09T01:50:28;3.50;99.90
35796;DHT22;21916;52.428;13.302;2023-04-09T01:52:54;3.50;99.90
35796;DHT22;21916;52.428;13.302;2023-04-09T01:55:20;3.60;99.90
35796;DHT22;21916;52.428;13.302;2023-04-09T01:57:47;3.50;99.90
35796;DHT22;21916;52.428;13.302;2023-04-09T02:00:14;3.40;99.90
35796;DHT22;21916;52.428;13.302;2023-04-09T02:02:56;3.30;99.90
35796;DHT22;21916;52.428;13.302;2023-04-09T02:05:27;3.40;99.90
35796;DHT22;21916;52.428;13.302;2023-04-09T02:07:55;3.40;99.90
35796;DHT22;21916;52.428;13.302;2023-04-09T02:10:26;3.30;99.90
35796;DHT22;21916;52.428;13.302;2023-04-09T02:12:55;3.20;99.90
35796;DHT22;21916;52.428;13.302;2023-04-09T02:15:22;3.20;99.90
35796;DHT22;21916;52.428;13.302;2023-04-09T02:17:48;3.30;99.90
35796;DHT22;21916;52.428;13.302;2023-04-09T02:20:18;3.30;99.90
35796;DHT22;21916;52.428;13.302;2023-04-09T02:22:45;3.40;99.90
35796;DHT22;21916;52.428;13.302;2023-04-09T02:25:11;3.20;99.90
35796;DHT22;21916;52.428;13.302;2023-04-09T02:27:37;3.10;99.90
35796;DHT22;21916;52.428;13.302;2023-04-09T02:30:04;3.00;99.90
35796;DHT22;21916;52.428;13.302;2023-04-09T02:32:30;3.00;99.90
35796;DHT22;21916;52.428;13.302;2023-04-09T02:34:56;3.10;99.90
35796;DHT22;21916;52.428;13.302;2023-04-09T02:37:22;3.00;99.90
35796;DHT22;21916;52.428;13.302;2023-04-09T02:39:48;2.90;99.90
35796;DHT22;21916;52.428;13.302;2023-04-09T02:42:14;2.90;99.90
35796;DHT22;21916;52.428;13.302;2023-04-09T02:44:40;2.90;99.90
35796;DHT22;21916;52.428;13.302;2023-04-09T02:47:06;3.00;99.90
35796;DHT22;21916;52.428;13.302;2023-04-09T02:49:32;3.00;99.90
35796;DHT22;21916;52.428;13.302;2023-04-09T02:51:58;2.80;99.90
35796;DHT22;21916;52.428;13.302;2023-04-09T02:54:24;2.70;99.90
35796;DHT22;21916;52.428;13.302;2023-04-09T02:56:50;2.70;99.90
35796;DHT22;21916;52.428;13.302;2023-04-09T02:59:16;2.70;99.90
35796;DHT22;21916;52.428;13.302;2023-04-09T03:01:42;2.80;99.90
35796;DHT22;21916;52.428;13.302;2023-04-09T03:04:08;2.70;99.90
35796;DHT22;21916;52.428;13.302;2023-04-09T03:06:34;2.60;99.90
35796;DHT22;21916;52.428;13.302;2023-04-09T03:08:59;2.70;99.90
35796;DHT22;21916;52.428;13.302;2023-04-09T03:11:25;2.70;99.90
35796;DHT22;21916;52.428;13.302;2023-04-09T03:13:51;2.70;99.90
35796;DHT22;21916;52.428;13.302;2023-04-09T03:16:17;2.60;99.90
35796;DHT22;21916;52.428;13.302;2023-04-09T03:18:43;2.50;99.90
35796;DHT22;21916;52.428;13.302;2023-04-09T03:21:09;2.50;99.90
35796;DHT22;21916;52.428;13.302;2023-04-09T03:23:39;2.50;99.90
35796;DHT22;21916;52.428;13.302;2023-04-09T03:26:07;2.50;99.90
35796;DHT22;21916;52.428;13.302;2023-04-09T03:28:40;2.40;99.90
35796;DHT22;21916;52.428;13.302;2023-04-09T03:31:06;2.40;99.90
35796;DHT22;21916;52.428;13.302;2023-04-09T03:33:35;2.40;99.90
35796;DHT22;21916;52.428;13.302;2023-04-09T03:36:01;2.50;99.90
35796;DHT22;21916;52.428;13.302;2023-04-09T03:38:59;2.60;99.90
35796;DHT22;21916;52.428;13.302;2023-04-09T03:41:31;2.40;99.90
35796;DHT22;21916;52.428;13.302;2023-04-09T03:44:01;2.50;99.90
35796;DHT22;21916;52.428;13.302;2023-04-09T03:46:33;2.50;99.90
35796;DHT22;21916;52.428;13.302;2023-04-09T03:49:00;2.50;99.90
35796;DHT22;21916;52.428;13.302;2023-04-09T03:51:35;2.50;99.90
35796;DHT22;21916;52.428;13.302;2023-04-09T03:54:02;2.40;99.90
35796;DHT22;21916;52.428;13.302;2023-04-09T03:56:29;2.40;99.90
35796;DHT22;21916;52.428;13.302;2023-04-09T03:58:56;2.40;99.90
35796;DHT22;21916;52.428;13.302;2023-04-09T04:01:31;2.50;99.90
35796;DHT22;21916;52.428;13.302;2023-04-09T04:04:00;2.50;99.90
35796;DHT22;21916;52.428;13.302;2023-04-09T04:06:35;2.30;99.90
35796;DHT22;21916;52.428;13.302;2023-04-09T04:09:21;2.30;99.90
35796;DHT22;21916;52.428;13.302;2023-04-09T04:12:01;2.20;99.90
35796;DHT22;21916;52.428;13.302;2023-04-09T04:14:41;2.20;99.90
35796;DHT22;21916;52.428;13.302;2023-04-09T04:17:18;2.20;99.90
35796;DHT22;21916;52.428;13.302;2023-04-09T04:19:44;2.20;99.90
35796;DHT22;21916;52.428;13.302;2023-04-09T04:22:10;2.20;99.90
35796;DHT22;21916;52.428;13.302;2023-04-09T04:24:40;2.30;99.90
35796;DHT22;21916;52.428;13.302;2023-04-09T04:27:06;2.20;99.90
35796;DHT22;21916;52.428;13.302;2023-04-09T04:29:34;2.10;99.90
35796;DHT22;21916;52.428;13.302;2023-04-09T04:32:03;2.20;99.90
35796;DHT22;21916;52.428;13.302;2023-04-09T04:34:34;2.10;99.90
35796;DHT22;21916;52.428;13.302;2023-04-09T04:37:08;2.10;99.90
35796;DHT22;21916;52.428;13.302;2023-04-09T04:39:34;2.10;99.90
35796;DHT22;21916;52.428;13.302;2023-04-09T04:42:08;2.10;99.90
35796;DHT22;21916;52.428;13.302;2023-04-09T04:44:34;2.20;99.90
35796;DHT22;21916;52.428;13.302;2023-04-09T04:47:11;2.20;99.90
35796;DHT22;21916;52.428;13.302;2023-04-09T04:49:36;2.20;99.90
35796;DHT22;21916;52.428;13.302;2023-04-09T04:52:05;2.30;99.90
35796;DHT22;21916;52.428;13.302;2023-04-09T04:54:32;2.30;99.90
35796;DHT22;21916;52.428;13.302;2023-04-09T04:56:59;2.30;99.90
35796;DHT22;21916;52.428;13.302;2023-04-09T04:59:38;2.20;99.90
35796;DHT22;21916;52.428;13.302;2023-04-09T05:02:07;2.20;99.90
35796;DHT22;21916;52.428;13.302;2023-04-09T05:04:50;2.30;99.90
35796;DHT22;21916;52.428;13.302;2023-04-09T05:07:18;2.30;99.90
35796;DHT22;21916;52.428;13.302;2023-04-09T05:09:50;2.40;99.90
35796;DHT22;21916;52.428;13.302;2023-04-09T05:12:15;2.40;99.90
35796;DHT22;21916;52.428;13.302;2023-04-09T05:14:46;2.40;99.90
35796;DHT22;21916;52.428;13.302;2023-04-09T05:17:12;2.40;99.90
35796;DHT22;21916;52.428;13.302;2023-04-09T05:19:52;2.60;99.90
35796;DHT22;21916;52.428;13.302;2023-04-09T05:22:23;2.70;99.90
35796;DHT22;21916;52.428;13.302;2023-04-09T05:24:49;2.80;99.90
35796;DHT22;21916;52.428;13.302;2023-04-09T05:27:15;2.70;99.90
35796;DHT22;21916;52.428;13.302;2023-04-09T05:29:41;2.80;99.90
35796;DHT22;21916;52.428;13.302;2023-04-09T05:32:08;3.10;99.90
35796;DHT22;21916;52.428;13.302;2023-04-09T05:34:36;3.10;99.90
35796;DHT22;21916;52.428;13.302;2023-04-09T05:37:04;3.20;99.90
35796;DHT22;21916;52.428;13.302;2023-04-09T05:39:31;3.40;99.90
35796;DHT22;21916;52.428;13.302;2023-04-09T05:41:59;3.60;99.90
35796;DHT22;21916;52.428;13.302;2023-04-09T05:44:30;3.60;99.90
35796;DHT22;21916;52.428;13.302;2023-04-09T05:47:07;3.70;99.90
35796;DHT22;21916;52.428;13.302;2023-04-09T05:49:42;3.90;99.90
35796;DHT22;21916;52.428;13.302;2023-04-09T05:52:14;4.00;99.90
35796;DHT22;21916;52.428;13.302;2023-04-09T05:54:41;4.20;99.90
35796;DHT22;21916;52.428;13.302;2023-04-09T05:57:09;4.30;99.90
35796;DHT22;21916;52.428;13.302;2023-04-09T05:59:37;4.30;99.90
35796;DHT22;21916;52.428;13.302;2023-04-09T06:02:04;4.40;99.90
35796;DHT22;21916;52.428;13.302;2023-04-09T06:04:31;4.60;99.90
35796;DHT22;21916;52.428;13.302;2023-04-09T06:06:59;4.80;99.90
35796;DHT22;21916;52.428;13.302;2023-04-09T06:09:25;4.90;99.90
35796;DHT22;21916;52.428;13.302;2023-04-09T06:11:52;5.00;99.90
35796;DHT22;21916;52.428;13.302;2023-04-09T06:14:18;5.20;99.90
35796;DHT22;21916;52.428;13.302;2023-04-09T06:16:44;5.20;99.90
35796;DHT22;21916;52.428;13.302;2023-04-09T06:19:11;5.20;99.90
35796;DHT22;21916;52.428;13.302;2023-04-09T06:21:37;5.30;99.90
35796;DHT22;21916;52.428;13.302;2023-04-09T06:24:05;5.30;99.90
35796;DHT22;21916;52.428;13.302;2023-04-09T06:26:31;5.40;99.90
35796;DHT22;21916;52.428;13.302;2023-04-09T06:28:57;5.50;99.90
35796;DHT22;21916;52.428;13.302;2023-04-09T06:31:23;5.50;99.90
35796;DHT22;21916;52.428;13.302;2023-04-09T06:33:49;5.60;99.90
35796;DHT22;21916;52.428;13.302;2023-04-09T06:36:15;5.70;99.90
35796;DHT22;21916;52.428;13.302;2023-04-09T06:38:40;5.80;99.90
35796;DHT22;21916;52.428;13.302;2023-04-09T06:41:06;5.70;99.90
35796;DHT22;21916;52.428;13.302;2023-04-09T06:43:33;5.80;99.90
35796;DHT22;21916;52.428;13.302;2023-04-09T06:46:00;5.70;99.90
35796;DHT22;21916;52.428;13.302;2023-04-09T06:48:26;5.80;99.90
35796;DHT22;21916;52.428;13.302;2023-04-09T06:50:52;5.90;99.90
35796;DHT22;21916;52.428;13.302;2023-04-09T06:53:18;5.90;99.90
35796;DHT22;21916;52.428;13.302;2023-04-09T06:55:44;5.90;99.90
35796;DHT22;21916;52.428;13.302;2023-04-09T06:58:10;5.90;99.90
35796;DHT22;21916;52.428;13.302;2023-04-09T07:00:36;6.10;99.90
35796;DHT22;21916;52.428;13.302;2023-04-09T07:03:03;6.30;99.90
35796;DHT22;21916;52.428;13.302;2023-04-09T07:05:30;6.50;99.90
35796;DHT22;21916;52.428;13.302;2023-04-09T07:07:56;6.60;99.90
35796;DHT22;21916;52.428;13.302;2023-04-09T07:10:22;6.50;99.90
35796;DHT22;21916;52.428;13.302;2023-04-09T07:12:48;6.60;99.90
35796;DHT22;21916;52.428;13.302;2023-04-09T07:15:14;6.40;99.90
35796;DHT22;21916;52.428;13.302;2023-04-09T07:17:39;6.50;99.90
35796;DHT22;21916;52.428;13.302;2023-04-09T07:20:06;6.60;99.90
35796;DHT22;21916;52.428;13.302;2023-04-09T07:22:32;6.40;99.90
35796;DHT22;21916;52.428;13.302;2023-04-09T07:24:58;6.40;99.90
35796;DHT22;21916;52.428;13.302;2023-04-09T07:27:26;6.60;99.90
35796;DHT22;21916;52.428;13.302;2023-04-09T07:29:56;6.40;99.90
35796;DHT22;21916;52.428;13.302;2023-04-09T07:32:23;6.20;99.90
35796;DHT22;21916;52.428;13.302;2023-04-09T07:34:51;6.30;99.90
35796;DHT22;21916;52.428;13.302;2023-04-09T07:37:18;6.30;99.90
35796;DHT22;21916;52.428;13.302;2023-04-09T07:39:44;6.30;99.90
35796;DHT22;21916;52.428;13.302;2023-04-09T07:42:09;6.50;99.90
35796;DHT22;21916;52.428;13.302;2023-04-09T07:44:36;6.40;99.90
35796;DHT22;21916;52.428;13.302;2023-04-09T07:47:03;6.60;99.90
35796;DHT22;21916;52.428;13.302;2023-04-09T07:49:32;6.70;99.90
35796;DHT22;21916;52.428;13.302;2023-04-09T07:51:59;6.70;99.90
35796;DHT22;21916;52.428;13.302;2023-04-09T07:54:26;6.70;99.90
35796;DHT22;21916;52.428;13.302;2023-04-09T07:56:53;6.70;99.90
35796;DHT22;21916;52.428;13.302;2023-04-09T07:59:19;6.60;99.90
35796;DHT22;21916;52.428;13.302;2023-04-09T08:01:46;6.80;99.90
35796;DHT22;21916;52.428;13.302;2023-04-09T08:04:12;6.90;99.90
35796;DHT22;21916;52.428;13.302;2023-04-09T08:06:39;7.00;99.90
35796;DHT22;21916;52.428;13.302;2023-04-09T08:09:04;7.00;99.90
35796;DHT22;21916;52.428;13.302;2023-04-09T08:11:31;7.10;99.90
35796;DHT22;21916;52.428;13.302;2023-04-09T08:13:57;7.10;99.90
35796;DHT22;21916;52.428;13.302;2023-04-09T08:16:23;7.10;99.90
35796;DHT22;21916;52.428;13.302;2023-04-09T08:18:53;7.00;99.90
35796;DHT22;21916;52.428;13.302;2023-04-09T08:21:24;7.00;99.90
35796;DHT22;21916;52.428;13.302;2023-04-09T08:23:51;7.20;99.90
35796;DHT22;21916;52.428;13.302;2023-04-09T08:26:19;7.40;99.90
35796;DHT22;21916;52.428;13.302;2023-04-09T08:28:47;7.60;99.90
35796;DHT22;21916;52.428;13.302;2023-04-09T08:31:13;7.80;99.90
35796;DHT22;21916;52.428;13.302;2023-04-09T08:33:40;7.90;99.90
35796;DHT22;21916;52.428;13.302;2023-04-09T08:36:08;8.00;99.90
35796;DHT22;21916;52.428;13.302;2023-04-09T08:38:34;7.70;99.90
35796;DHT22;21916;52.428;13.302;2023-04-09T08:41:00;7.60;99.90
35796;DHT22;21916;52.428;13.302;2023-04-09T08:43:27;7.90;99.90
35796;DHT22;21916;52.428;13.302;2023-04-09T08:45:54;8.10;99.90
35796;DHT22;21916;52.428;13.302;2023-04-09T08:48:23;8.30;99.90
35796;DHT22;21916;52.428;13.302;2023-04-09T08:50:50;8.40;99.90
35796;DHT22;21916;52.428;13.302;2023-04-09T08:53:16;8.40;99.90
35796;DHT22;21916;52.428;13.302;2023-04-09T08:55:44;8.60;99.90
35796;DHT22;21916;52.428;13.302;2023-04-09T08:58:11;8.30;99.90
35796;DHT22;21916;52.428;13.302;2023-04-09T09:00:37;8.50;99.90
35796;DHT22;21916;52.428;13.302;2023-04-09T09:03:11;8.40;99.90
35796;DHT22;21916;52.428;13.302;2023-04-09T09:05:41;8.50;99.90
35796;DHT22;21916;52.428;13.302;2023-04-09T09:08:09;8.70;99.90
35796;DHT22;21916;52.428;13.302;2023-04-09T09:13:23;8.90;99.90
35796;DHT22;21916;52.428;13.302;2023-04-09T09:15:51;9.10;99.90
35796;DHT22;21916;52.428;13.302;2023-04-09T09:18:42;9.30;99.90
35796;DHT22;21916;52.428;13.302;2023-04-09T09:21:16;9.60;99.90
35796;DHT22;21916;52.428;13.302;2023-04-09T09:23:43;9.60;99.90
35796;DHT22;21916;52.428;13.302;2023-04-09T09:26:23;9.90;99.90
35796;DHT22;21916;52.428;13.302;2023-04-09T09:28:51;10.10;99.90
35796;DHT22;21916;52.428;13.302;2023-04-09T09:31:18;9.70;99.90
35796;DHT22;21916;52.428;13.302;2023-04-09T09:33:45;9.80;99.90
35796;DHT22;21916;52.428;13.302;2023-04-09T09:36:29;9.80;99.90
35796;DHT22;21916;52.428;13.302;2023-04-09T09:38:57;10.00;99.90
35796;DHT22;21916;52.428;13.302;2023-04-09T09:41:23;10.00;99.90
35796;DHT22;21916;52.428;13.302;2023-04-09T09:43:50;9.90;99.90
35796;DHT22;21916;52.428;13.302;2023-04-09T09:46:16;9.80;99.90
35796;DHT22;21916;52.428;13.302;2023-04-09T09:48:43;10.10;99.90
35796;DHT22;21916;52.428;13.302;2023-04-09T09:51:12;10.40;99.90
35796;DHT22;21916;52.428;13.302;2023-04-09T09:53:40;10.60;99.90
35796;DHT22;21916;52.428;13.302;2023-04-09T09:56:14;10.70;99.90
35796;DHT22;21916;52.428;13.302;2023-04-09T09:59:29;10.90;99.90
35796;DHT22;21916;52.428;13.302;2023-04-09T10:01:29;11.10;99.90
35796;DHT22;21916;52.428;13.302;2023-04-09T10:03:56;11.40;99.90
35796;DHT22;21916;52.428;13.302;2023-04-09T10:06:25;11.80;99.90
35796;DHT22;21916;52.428;13.302;2023-04-09T10:08:56;11.80;99.90
35796;DHT22;21916;52.428;13.302;2023-04-09T10:11:23;11.90;99.90
35796;DHT22;21916;52.428;13.302;2023-04-09T10:13:54;12.10;99.90
35796;DHT22;21916;52.428;13.302;2023-04-09T10:16:21;12.30;99.90
35796;DHT22;21916;52.428;13.302;2023-04-09T10:18:47;12.20;99.90
35796;DHT22;21916;52.428;13.302;2023-04-09T10:21:16;12.20;99.90
35796;DHT22;21916;52.428;13.302;2023-04-09T10:23:47;12.20;99.90
35796;DHT22;21916;52.428;13.302;2023-04-09T10:26:17;11.90;99.90
35796;DHT22;21916;52.428;13.302;2023-04-09T10:28:43;12.10;99.90
35796;DHT22;21916;52.428;13.302;2023-04-09T10:31:09;12.30;99.90
35796;DHT22;21916;52.428;13.302;2023-04-09T10:33:37;12.40;99.90
35796;DHT22;21916;52.428;13.302;2023-04-09T10:36:04;12.80;99.90
35796;DHT22;21916;52.428;13.302;2023-04-09T10:38:37;12.10;99.90
35796;DHT22;21916;52.428;13.302;2023-04-09T10:43:34;12.30;99.90
35796;DHT22;21916;52.428;13.302;2023-04-09T10:46:03;12.60;99.90
35796;DHT22;21916;52.428;13.302;2023-04-09T10:48:32;12.40;99.90
35796;DHT22;21916;52.428;13.302;2023-04-09T10:50:58;13.10;99.90
35796;DHT22;21916;52.428;13.302;2023-04-09T10:53:26;13.70;99.90
35796;DHT22;21916;52.428;13.302;2023-04-09T10:55:53;14.40;99.90
35796;DHT22;21916;52.428;13.302;2023-04-09T10:58:20;15.10;99.90
35796;DHT22;21916;52.428;13.302;2023-04-09T11:00:48;16.50;99.90
35796;DHT22;21916;52.428;13.302;2023-04-09T11:06:07;19.20;97.00
35796;DHT22;21916;52.428;13.302;2023-04-09T11:08:36;20.20;94.90
35796;DHT22;21916;52.428;13.302;2023-04-09T11:11:03;21.20;93.20
35796;DHT22;21916;52.428;13.302;2023-04-09T11:13:30;21.70;90.90
35796;DHT22;21916;52.428;13.302;2023-04-09T11:15:57;20.80;90.50
35796;DHT22;21916;52.428;13.302;2023-04-09T11:18:26;22.10;90.90
35796;DHT22;21916;52.428;13.302;2023-04-09T11:20:59;21.60;88.00
35796;DHT22;21916;52.428;13.302;2023-04-09T11:23:26;21.70;86.30
35796;DHT22;21916;52.428;13.302;2023-04-09T11:25:53;21.20;86.60
35796;DHT22;21916;52.428;13.302;2023-04-09T11:28:19;22.20;85.30
35796;DHT22;21916;52.428;13.302;2023-04-09T11:30:46;23.30;84.60
35796;DHT22;21916;52.428;13.302;2023-04-09T11:33:12;24.30;81.70
35796;DHT22;21916;52.428;13.302;2023-04-09T11:35:39;24.40;79.50
35796;DHT22;21916;52.428;13.302;2023-04-09T11:38:09;23.50;76.40
35796;DHT22;21916;52.428;13.302;2023-04-09T11:40:35;23.90;78.20
35796;DHT22;21916;52.428;13.302;2023-04-09T11:43:01;23.90;76.40
35796;DHT22;21916;52.428;13.302;2023-04-09T11:45:29;24.20;73.90
35796;DHT22;21916;52.428;13.302;2023-04-09T11:47:55;22.30;77.50
35796;DHT22;21916;52.428;13.302;2023-04-09T11:50:22;22.80;77.70
35796;DHT22;21916;52.428;13.302;2023-04-09T11:52:48;23.70;78.10
35796;DHT22;21916;52.428;13.302;2023-04-09T11:55:28;24.80;74.00
35796;DHT22;21916;52.428;13.302;2023-04-09T11:58:00;25.40;74.40
35796;DHT22;21916;52.428;13.302;2023-04-09T12:00:27;26.20;72.20
35796;DHT22;21916;52.428;13.302;2023-04-09T12:03:03;26.20;69.60
35796;DHT22;21916;52.428;13.302;2023-04-09T12:05:31;26.00;70.50
35796;DHT22;21916;52.428;13.302;2023-04-09T12:08:02;26.70;70.80
35796;DHT22;21916;52.428;13.302;2023-04-09T12:10:31;26.00;67.30
35796;DHT22;21916;52.428;13.302;2023-04-09T12:13:02;25.50;68.80
35796;DHT22;21916;52.428;13.302;2023-04-09T12:15:40;26.40;67.80
35796;DHT22;21916;52.428;13.302;2023-04-09T12:18:12;26.30;66.40
35796;DHT22;21916;52.428;13.302;2023-04-09T12:20:45;27.80;65.60
35796;DHT22;21916;52.428;13.302;2023-04-09T12:23:12;28.50;64.30
35796;DHT22;21916;52.428;13.302;2023-04-09T12:25:41;28.60;62.20
35796;DHT22;21916;52.428;13.302;2023-04-09T12:28:10;29.30;61.90
35796;DHT22;21916;52.428;13.302;2023-04-09T12:30:36;29.50;60.50
35796;DHT22;21916;52.428;13.302;2023-04-09T12:33:02;29.80;58.40
35796;DHT22;21916;52.428;13.302;2023-04-09T12:35:28;29.70;57.80
35796;DHT22;21916;52.428;13.302;2023-04-09T12:37:54;29.80;57.20
35796;DHT22;21916;52.428;13.302;2023-04-09T12:40:20;29.80;57.60
35796;DHT22;21916;52.428;13.302;2023-04-09T12:42:47;29.50;56.70
35796;DHT22;21916;52.428;13.302;2023-04-09T12:45:14;29.60;55.80
35796;DHT22;21916;52.428;13.302;2023-04-09T12:47:41;29.80;56.20
35796;DHT22;21916;52.428;13.302;2023-04-09T12:50:08;30.10;55.30
35796;DHT22;21916;52.428;13.302;2023-04-09T12:52:35;29.90;54.00
35796;DHT22;21916;52.428;13.302;2023-04-09T12:55:01;30.40;55.80
35796;DHT22;21916;52.428;13.302;2023-04-09T12:57:27;31.20;54.30
35796;DHT22;21916;52.428;13.302;2023-04-09T12:59:53;32.00;53.50
35796;DHT22;21916;52.428;13.302;2023-04-09T13:02:20;31.60;52.20
35796;DHT22;21916;52.428;13.302;2023-04-09T13:04:47;32.10;51.50
35796;DHT22;21916;52.428;13.302;2023-04-09T13:07:14;31.40;51.40
35796;DHT22;21916;52.428;13.302;2023-04-09T13:09:42;31.60;52.20
35796;DHT22;21916;52.428;13.302;2023-04-09T13:12:08;32.80;49.30
35796;DHT22;21916;52.428;13.302;2023-04-09T13:14:34;32.50;48.90
35796;DHT22;21916;52.428;13.302;2023-04-09T13:17:01;32.10;49.00
35796;DHT22;21916;52.428;13.302;2023-04-09T13:19:27;31.70;49.80
35796;DHT22;21916;52.428;13.302;2023-04-09T13:21:53;32.30;48.90
35796;DHT22;21916;52.428;13.302;2023-04-09T13:24:19;32.00;49.50
35796;DHT22;21916;52.428;13.302;2023-04-09T13:26:45;31.80;49.10
35796;DHT22;21916;52.428;13.302;2023-04-09T13:29:11;30.40;46.30
35796;DHT22;21916;52.428;13.302;2023-04-09T13:31:37;29.50;47.80
35796;DHT22;21916;52.428;13.302;2023-04-09T13:34:03;28.60;49.60
35796;DHT22;21916;52.428;13.302;2023-04-09T13:36:29;29.30;51.00
35796;DHT22;21916;52.428;13.302;2023-04-09T13:38:56;30.00;50.40
35796;DHT22;21916;52.428;13.302;2023-04-09T13:41:30;29.80;49.60
35796;DHT22;21916;52.428;13.302;2023-04-09T13:43:56;30.40;49.80
35796;DHT22;21916;52.428;13.302;2023-04-09T13:46:22;29.60;47.40
35796;DHT22;21916;52.428;13.302;2023-04-09T13:48:48;30.40;47.70
35796;DHT22;21916;52.428;13.302;2023-04-09T13:51:14;30.00;48.00
35796;DHT22;21916;52.428;13.302;2023-04-09T13:53:40;30.70;48.40
35796;DHT22;21916;52.428;13.302;2023-04-09T13:56:06;31.00;46.70
35796;DHT22;21916;52.428;13.302;2023-04-09T13:58:32;31.60;46.30
35796;DHT22;21916;52.428;13.302;2023-04-09T14:00:58;31.00;45.90
35796;DHT22;21916;52.428;13.302;2023-04-09T14:03:24;31.10;46.40
35796;DHT22;21916;52.428;13.302;2023-04-09T14:05:49;31.90;45.30
35796;DHT22;21916;52.428;13.302;2023-04-09T14:08:15;32.20;44.60
35796;DHT22;21916;52.428;13.302;2023-04-09T14:10:41;32.80;44.30
35796;DHT22;21916;52.428;13.302;2023-04-09T14:13:07;33.10;43.20
35796;DHT22;21916;52.428;13.302;2023-04-09T14:15:36;33.10;43.70
35796;DHT22;21916;52.428;13.302;2023-04-09T14:18:02;33.10;43.90
35796;DHT22;21916;52.428;13.302;2023-04-09T14:20:28;32.90;43.10
35796;DHT22;21916;52.428;13.302;2023-04-09T14:22:54;33.00;42.40
35796;DHT22;21916;52.428;13.302;2023-04-09T14:25:20;32.00;42.80
35796;DHT22;21916;52.428;13.302;2023-04-09T14:27:46;31.40;43.70
35796;DHT22;21916;52.428;13.302;2023-04-09T14:30:12;31.00;44.10
35796;DHT22;21916;52.428;13.302;2023-04-09T14:32:38;30.70;43.60
35796;DHT22;21916;52.428;13.302;2023-04-09T14:35:04;30.30;43.90
35796;DHT22;21916;52.428;13.302;2023-04-09T14:37:30;30.50;43.60
35796;DHT22;21916;52.428;13.302;2023-04-09T14:39:57;30.80;44.00
35796;DHT22;21916;52.428;13.302;2023-04-09T14:42:22;30.00;44.80
35796;DHT22;21916;52.428;13.302;2023-04-09T14:44:48;29.50;45.20
35796;DHT22;21916;52.428;13.302;2023-04-09T14:47:14;29.20;44.30
35796;DHT22;21916;52.428;13.302;2023-04-09T14:49:40;28.90;45.20
35796;DHT22;21916;52.428;13.302;2023-04-09T14:52:06;27.90;45.30
35796;DHT22;21916;52.428;13.302;2023-04-09T14:54:32;28.10;45.90
35796;DHT22;21916;52.428;13.302;2023-04-09T14:56:58;28.60;45.30
35796;DHT22;21916;52.428;13.302;2023-04-09T14:59:24;27.40;45.60
35796;DHT22;21916;52.428;13.302;2023-04-09T15:01:50;27.50;46.30
35796;DHT22;21916;52.428;13.302;2023-04-09T15:04:17;28.00;45.60
35796;DHT22;21916;52.428;13.302;2023-04-09T15:06:43;27.90;45.50
35796;DHT22;21916;52.428;13.302;2023-04-09T15:09:09;28.00;45.30
35796;DHT22;21916;52.428;13.302;2023-04-09T15:11:35;28.60;45.90
35796;DHT22;21916;52.428;13.302;2023-04-09T15:14:01;28.90;45.40
35796;DHT22;21916;52.428;13.302;2023-04-09T15:16:27;29.30;45.40
35796;DHT22;21916;52.428;13.302;2023-04-09T15:18:54;29.50;45.50
35796;DHT22;21916;52.428;13.302;2023-04-09T15:21:22;29.20;45.80
35796;DHT22;21916;52.428;13.302;2023-04-09T15:23:51;28.30;45.70
35796;DHT22;21916;52.428;13.302;2023-04-09T15:26:18;28.00;46.50
35796;DHT22;21916;52.428;13.302;2023-04-09T15:28:44;27.20;45.50
35796;DHT22;21916;52.428;13.302;2023-04-09T15:31:11;27.00;45.80
35796;DHT22;21916;52.428;13.302;2023-04-09T15:33:37;27.10;46.40
35796;DHT22;21916;52.428;13.302;2023-04-09T15:36:03;27.40;48.00
35796;DHT22;21916;52.428;13.302;2023-04-09T15:38:29;27.80;47.20
35796;DHT22;21916;52.428;13.302;2023-04-09T15:40:55;28.60;47.60
35796;DHT22;21916;52.428;13.302;2023-04-09T15:43:22;28.70;47.40
35796;DHT22;21916;52.428;13.302;2023-04-09T15:45:51;28.20;47.20
35796;DHT22;21916;52.428;13.302;2023-04-09T15:48:17;27.90;47.00
35796;DHT22;21916;52.428;13.302;2023-04-09T15:50:44;28.40;47.40